Time;durP1;ratioP1;P1;durP2;ratioP2;P2;SDS_P1;SDS_P2;PMS_P1;PMS_P2;Temp;Humidity;BMP_temperature;BMP_pressure;BME280_temperature;BME280_humidity;BME280_pressure;Samples;Min_cycle;Max_cycle;Signal;HPM_P1;HPM_P2
2023/08/16 00:00:55;;;;;;;3.85;2.10;;;23.90;99.90;;;;;;7394156;19;20465;-78
2023/08/16 00:03:21;;;;;;;2.60;1.92;;;24.00;99.90;;;;;;7392245;19;20183;-78
2023/08/16 00:05:47;;;;;;;2.25;2.03;;;24.00;99.90;;;;;;7392993;19;20529;-80
2023/08/16 00:08:13;;;;;;;2.17;1.88;;;24.00;99.90;;;;;;7391391;19;20145;-78
2023/08/16 00:10:38;;;;;;;2.55;1.98;;;24.10;99.90;;;;;;7391731;19;20158;-77
2023/08/16 00:13:05;;;;;;;2.50;2.30;;;24.10;99.90;;;;;;7389890;19;20165;-79
2023/08/16 00:15:30;;;;;;;2.50;2.13;;;24.00;99.90;;;;;;7393042;19;20138;-78
2023/08/16 00:17:56;;;;;;;1.92;1.83;;;24.00;99.90;;;;;;7387729;19;20183;-80
2023/08/16 00:20:26;;;;;;;2.47;2.00;;;24.00;99.90;;;;;;7390515;19;20149;-78
2023/08/16 00:22:52;;;;;;;2.38;2.00;;;24.00;99.90;;;;;;7392114;19;20163;-80
2023/08/16 00:25:18;;;;;;;2.45;2.10;;;24.00;99.90;;;;;;7390630;19;20142;-79
2023/08/16 00:27:44;;;;;;;2.15;1.90;;;23.90;99.90;;;;;;7390237;19;20137;-79
2023/08/16 00:30:10;;;;;;;2.97;2.30;;;23.80;99.90;;;;;;7389117;19;20194;-78
2023/08/16 00:32:37;;;;;;;2.63;2.03;;;23.90;99.90;;;;;;7391570;19;20194;-78
2023/08/16 00:35:04;;;;;;;5.20;2.08;;;24.00;99.90;;;;;;7390407;19;20146;-79
2023/08/16 00:37:30;;;;;;;3.00;2.40;;;23.90;99.90;;;;;;7390658;19;20165;-79
2023/08/16 00:39:56;;;;;;;3.72;2.70;;;24.00;99.90;;;;;;7392239;19;20150;-79
2023/08/16 00:42:22;;;;;;;4.13;2.42;;;24.00;99.90;;;;;;7391426;19;20134;-79
2023/08/16 00:44:48;;;;;;;3.47;2.50;;;24.00;99.90;;;;;;7389153;19;20587;-79
2023/08/16 00:47:14;;;;;;;2.92;2.38;;;23.90;99.90;;;;;;7382275;19;20123;-78
2023/08/16 00:49:41;;;;;;;3.13;2.40;;;23.80;99.90;;;;;;7390050;19;20126;-76
2023/08/16 00:52:08;;;;;;;3.65;2.25;;;23.70;99.90;;;;;;7393288;19;20235;-77
2023/08/16 00:54:34;;;;;;;3.45;2.30;;;23.60;99.90;;;;;;7389151;19;20150;-77
2023/08/16 00:57:00;;;;;;;4.03;2.20;;;23.70;99.90;;;;;;7390354;19;20133;-77
2023/08/16 00:59:27;;;;;;;3.75;2.10;;;23.70;99.90;;;;;;7391008;19;20273;-78
2023/08/16 01:01:53;;;;;;;2.10;1.90;;;23.80;99.90;;;;;;7388706;19;20134;-79
2023/08/16 01:04:19;;;;;;;2.78;1.98;;;23.70;99.90;;;;;;7389822;19;20146;-77
2023/08/16 01:06:45;;;;;;;2.78;2.20;;;23.50;99.90;;;;;;7387056;19;20158;-77
2023/08/16 01:09:11;;;;;;;2.60;2.10;;;23.50;99.90;;;;;;7382926;19;20146;-78
2023/08/16 01:12:07;;;;;;;4.47;2.78;;;23.50;99.90;;;;;;7389482;19;20202;-77
2023/08/16 01:14:47;;;;;;;3.33;2.45;;;23.50;99.90;;;;;;7390849;19;20142;-78
2023/08/16 01:17:14;;;;;;;2.55;2.35;;;23.40;99.90;;;;;;7388810;19;20134;-78
2023/08/16 01:19:41;;;;;;;2.60;2.30;;;23.30;99.90;;;;;;7382946;19;20465;-78
2023/08/16 01:22:44;;;;;;;3.17;2.28;;;23.30;99.90;;;;;;7391823;19;20476;-78
2023/08/16 01:25:42;;;;;;;2.53;2.33;;;23.30;99.90;;;;;;7390978;19;20498;-78
2023/08/16 01:28:09;;;;;;;2.80;2.35;;;23.30;99.90;;;;;;7391904;19;20566;-77
2023/08/16 01:30:35;;;;;;;2.30;2.10;;;23.30;99.90;;;;;;7391377;19;20131;-77
2023/08/16 01:33:06;;;;;;;4.45;2.20;;;23.10;99.90;;;;;;7391811;19;20169;-78
2023/08/16 01:35:33;;;;;;;3.83;2.58;;;23.10;99.90;;;;;;7389421;19;20475;-77
2023/08/16 01:37:59;;;;;;;2.70;2.20;;;23.20;99.90;;;;;;7388294;19;20154;-76
2023/08/16 01:40:28;;;;;;;3.30;2.15;;;23.00;99.90;;;;;;7391968;19;20162;-77
2023/08/16 01:42:55;;;;;;;3.88;2.20;;;22.90;99.90;;;;;;7388830;19;20190;-77
2023/08/16 01:45:22;;;;;;;3.30;2.28;;;22.90;99.90;;;;;;7390053;19;20153;-78
2023/08/16 01:47:49;;;;;;;3.17;2.10;;;22.80;99.90;;;;;;7387845;19;20165;-78
2023/08/16 01:50:18;;;;;;;3.33;2.50;;;23.00;99.90;;;;;;7388163;19;20210;-79
2023/08/16 01:52:44;;;;;;;2.30;2.10;;;23.20;99.90;;;;;;7388784;19;20167;-78
2023/08/16 01:55:10;;;;;;;3.15;2.50;;;23.20;99.90;;;;;;7388380;19;20146;-77
2023/08/16 01:57:36;;;;;;;4.22;2.40;;;23.20;99.90;;;;;;7390314;19;20168;-77
2023/08/16 02:00:03;;;;;;;3.28;2.20;;;23.20;99.90;;;;;;7389572;19;20138;-78
2023/08/16 02:02:29;;;;;;;3.33;2.30;;;23.10;99.90;;;;;;7391130;19;20221;-77
2023/08/16 02:04:55;;;;;;;3.50;2.50;;;23.20;99.90;;;;;;7385552;19;20611;-76
2023/08/16 02:07:21;;;;;;;4.78;2.60;;;23.20;99.90;;;;;;7388027;19;20147;-78
2023/08/16 02:09:47;;;;;;;2.95;2.63;;;23.10;99.90;;;;;;7386865;19;20594;-77
2023/08/16 02:12:12;;;;;;;4.05;2.20;;;23.10;99.90;;;;;;7388532;19;20135;-77
2023/08/16 02:14:38;;;;;;;2.67;2.40;;;23.10;99.90;;;;;;7387246;19;20142;-78
2023/08/16 02:17:04;;;;;;;5.22;2.80;;;23.20;99.90;;;;;;7387822;19;20551;-78
2023/08/16 02:19:30;;;;;;;2.83;2.53;;;23.20;99.90;;;;;;7386603;19;20163;-76
2023/08/16 02:21:55;;;;;;;4.22;2.47;;;23.20;99.90;;;;;;7388080;19;20141;-76
2023/08/16 02:24:21;;;;;;;2.70;2.40;;;23.00;99.90;;;;;;7387976;19;20143;-77
2023/08/16 02:26:48;;;;;;;2.95;2.33;;;22.90;99.90;;;;;;7385798;19;20127;-78
2023/08/16 02:29:14;;;;;;;2.75;2.50;;;22.60;99.90;;;;;;7387048;19;20138;-79
2023/08/16 02:31:39;;;;;;;3.78;2.50;;;22.60;99.90;;;;;;7388067;19;20150;-77
2023/08/16 02:34:05;;;;;;;3.72;2.38;;;22.50;99.90;;;;;;7385751;19;20160;-78
2023/08/16 02:36:31;;;;;;;2.83;2.50;;;22.60;99.90;;;;;;7388469;19;20147;-76
2023/08/16 02:38:56;;;;;;;4.80;2.40;;;22.60;99.90;;;;;;7386616;19;20126;-78
2023/08/16 02:41:22;;;;;;;3.00;2.70;;;22.70;99.90;;;;;;7386659;19;20586;-78
2023/08/16 02:43:48;;;;;;;5.35;2.45;;;22.50;99.90;;;;;;7386161;19;20130;-76
2023/08/16 02:46:13;;;;;;;4.68;2.58;;;22.50;99.90;;;;;;7385632;19;20134;-77
2023/08/16 02:48:39;;;;;;;3.67;2.65;;;22.60;99.90;;;;;;7385492;19;20131;-77
2023/08/16 02:51:05;;;;;;;3.45;2.47;;;22.50;99.90;;;;;;7385990;19;20126;-79
2023/08/16 02:53:31;;;;;;;3.13;2.45;;;22.60;99.90;;;;;;7387027;19;20138;-78
2023/08/16 02:55:56;;;;;;;2.53;2.17;;;22.80;99.90;;;;;;7382800;19;20201;-76
2023/08/16 02:58:22;;;;;;;2.50;2.30;;;22.90;99.90;;;;;;7386825;19;20157;-77
2023/08/16 03:00:50;;;;;;;4.35;2.10;;;22.90;99.90;;;;;;7385912;19;20135;-76
2023/08/16 03:03:17;;;;;;;2.55;2.25;;;22.90;99.90;;;;;;7387004;19;20158;-79
2023/08/16 03:05:43;;;;;;;2.67;2.33;;;22.90;99.90;;;;;;7386486;19;20134;-77
2023/08/16 03:08:09;;;;;;;3.03;2.05;;;22.80;99.90;;;;;;7387145;19;20437;-78
2023/08/16 03:10:37;;;;;;;3.15;2.30;;;22.70;99.90;;;;;;7386697;19;20141;-77
2023/08/16 03:13:03;;;;;;;3.50;1.95;;;22.80;99.90;;;;;;7385483;19;20135;-78
2023/08/16 03:15:28;;;;;;;3.90;2.20;;;22.80;99.90;;;;;;7389403;19;20465;-78
2023/08/16 03:17:54;;;;;;;2.60;2.40;;;22.80;99.90;;;;;;7385527;19;20139;-78
2023/08/16 03:20:21;;;;;;;2.85;2.42;;;22.70;99.90;;;;;;7385411;19;20884;-78
2023/08/16 03:22:47;;;;;;;3.35;2.55;;;22.70;99.90;;;;;;7385110;19;20147;-77
2023/08/16 03:25:12;;;;;;;3.22;2.50;;;22.60;99.90;;;;;;7386728;19;20134;-77
2023/08/16 03:27:38;;;;;;;2.55;2.10;;;22.60;99.90;;;;;;7382608;19;20197;-78
2023/08/16 03:30:05;;;;;;;3.80;2.60;;;22.60;99.90;;;;;;7384499;19;20151;-79
2023/08/16 03:32:31;;;;;;;3.67;2.75;;;22.50;99.90;;;;;;7385392;19;20138;-77
2023/08/16 03:34:56;;;;;;;5.72;2.75;;;22.50;99.90;;;;;;7386486;19;20131;-77
2023/08/16 03:37:22;;;;;;;4.72;2.40;;;22.40;99.90;;;;;;7386968;19;20203;-78
2023/08/16 03:39:48;;;;;;;3.33;2.63;;;22.50;99.90;;;;;;7387799;19;20150;-77
2023/08/16 03:42:14;;;;;;;3.22;2.80;;;22.50;99.90;;;;;;7386919;19;20145;-77
2023/08/16 03:44:39;;;;;;;2.88;2.33;;;22.10;99.90;;;;;;7387352;19;20638;-79
2023/08/16 03:47:05;;;;;;;3.65;2.58;;;22.00;99.90;;;;;;7382092;19;20746;-79
2023/08/16 03:49:31;;;;;;;3.05;2.70;;;22.10;99.90;;;;;;7386585;19;20245;-78
2023/08/16 03:51:56;;;;;;;2.83;2.58;;;22.30;99.90;;;;;;7386895;19;20130;-78
2023/08/16 03:54:22;;;;;;;3.40;2.85;;;22.40;99.90;;;;;;7391706;19;20602;-78
2023/08/16 03:56:48;;;;;;;2.97;2.35;;;22.40;99.90;;;;;;7394423;19;20251;-77
2023/08/16 03:59:14;;;;;;;3.40;2.38;;;22.40;99.90;;;;;;7391771;19;20134;-78
2023/08/16 04:01:39;;;;;;;2.75;2.30;;;22.40;99.90;;;;;;7392715;19;20198;-78
2023/08/16 04:04:05;;;;;;;3.03;2.40;;;22.50;99.90;;;;;;7393482;19;20146;-78
2023/08/16 04:06:31;;;;;;;3.03;2.35;;;22.50;99.90;;;;;;7392222;19;20146;-77
2023/08/16 04:08:57;;;;;;;4.30;2.40;;;22.60;99.90;;;;;;7394534;19;20804;-79
2023/08/16 04:11:23;;;;;;;3.63;2.40;;;22.70;99.90;;;;;;7391218;19;20146;-78
2023/08/16 04:13:48;;;;;;;3.17;2.50;;;22.50;99.90;;;;;;7393077;19;20152;-79
2023/08/16 04:16:14;;;;;;;4.43;2.08;;;22.20;99.90;;;;;;7389568;19;20134;-78
2023/08/16 04:18:40;;;;;;;4.45;3.13;;;22.30;99.90;;;;;;7390252;19;20127;-78
2023/08/16 04:21:05;;;;;;;6.18;3.10;;;22.30;99.90;;;;;;7391395;19;20130;-78
2023/08/16 04:23:31;;;;;;;3.50;2.50;;;22.30;99.90;;;;;;7390935;19;20454;-76
2023/08/16 04:25:57;;;;;;;5.00;2.50;;;22.20;99.90;;;;;;7392186;19;20138;-79
2023/08/16 04:28:22;;;;;;;5.95;2.90;;;22.10;99.90;;;;;;7394509;19;20896;-77
2023/08/16 04:30:48;;;;;;;3.25;2.60;;;22.20;99.90;;;;;;7391591;19;20133;-79
2023/08/16 04:33:14;;;;;;;2.58;2.38;;;22.20;99.90;;;;;;7392719;19;20562;-79
2023/08/16 04:35:40;;;;;;;2.53;2.10;;;22.20;99.90;;;;;;7390376;19;20177;-77
2023/08/16 04:38:05;;;;;;;2.83;2.50;;;22.30;99.90;;;;;;7390870;19;20139;-77
2023/08/16 04:40:31;;;;;;;2.40;2.20;;;22.40;99.90;;;;;;7390435;19;20138;-75
2023/08/16 04:42:57;;;;;;;5.15;2.65;;;22.60;99.90;;;;;;7392396;19;20276;-78
2023/08/16 04:45:23;;;;;;;2.90;2.20;;;22.50;99.90;;;;;;7390485;19;20130;-76
2023/08/16 04:47:49;;;;;;;5.38;2.63;;;22.60;99.90;;;;;;7391645;19;20134;-77
2023/08/16 04:50:15;;;;;;;3.30;2.58;;;22.70;99.90;;;;;;7390831;19;20146;-77
2023/08/16 04:52:41;;;;;;;3.20;2.63;;;22.60;99.90;;;;;;7391212;19;20149;-78
2023/08/16 04:55:07;;;;;;;2.65;2.40;;;22.70;99.90;;;;;;7392495;19;20133;-78
2023/08/16 04:57:33;;;;;;;3.20;2.65;;;22.70;99.90;;;;;;7390458;19;20155;-77
2023/08/16 04:59:58;;;;;;;3.38;2.40;;;22.60;99.90;;;;;;7392524;19;20130;-79
2023/08/16 05:02:25;;;;;;;3.15;2.20;;;22.70;99.90;;;;;;7391144;19;20218;-78
2023/08/16 05:04:51;;;;;;;2.70;2.10;;;22.70;99.90;;;;;;7388802;19;20536;-77
2023/08/16 05:07:17;;;;;;;3.80;2.33;;;22.50;99.90;;;;;;7389833;19;20141;-77
2023/08/16 05:09:43;;;;;;;3.63;2.58;;;22.40;99.90;;;;;;7389423;19;20594;-77
2023/08/16 05:12:08;;;;;;;6.75;2.90;;;22.40;99.90;;;;;;7391392;19;20131;-76
2023/08/16 05:14:34;;;;;;;4.30;3.17;;;22.50;99.90;;;;;;7391769;19;20149;-76
2023/08/16 05:17:00;;;;;;;7.28;3.58;;;22.50;99.90;;;;;;7389844;19;20839;-77
2023/08/16 05:19:25;;;;;;;5.93;3.33;;;22.50;99.90;;;;;;7388690;19;20312;-77
2023/08/16 05:21:51;;;;;;;3.78;2.92;;;22.50;99.90;;;;;;7390044;19;20130;-78
2023/08/16 05:24:17;;;;;;;5.80;3.88;;;22.20;99.90;;;;;;7387997;19;20135;-78
2023/08/16 05:26:42;;;;;;;5.88;3.30;;;22.30;99.90;;;;;;7388697;19;20218;-78
2023/08/16 05:29:08;;;;;;;6.15;3.70;;;22.50;99.90;;;;;;7387124;19;20141;-77
2023/08/16 05:31:34;;;;;;;3.80;2.88;;;22.50;99.90;;;;;;7387191;19;20481;-77
2023/08/16 05:34:00;;;;;;;3.90;3.10;;;22.60;99.90;;;;;;7390350;19;20145;-78
2023/08/16 05:36:28;;;;;;;8.07;3.40;;;22.70;99.90;;;;;;7388019;19;20145;-79
2023/08/16 05:38:54;;;;;;;4.40;3.58;;;22.70;99.90;;;;;;7390002;19;20608;-77
2023/08/16 05:41:20;;;;;;;6.68;3.35;;;22.70;99.90;;;;;;7387092;19;20142;-78
2023/08/16 05:43:46;;;;;;;6.40;3.50;;;22.70;99.90;;;;;;7389673;19;20134;-77
2023/08/16 05:46:11;;;;;;;3.83;3.08;;;22.70;99.90;;;;;;7386897;19;20135;-77
2023/08/16 05:48:37;;;;;;;4.45;3.53;;;22.70;99.90;;;;;;7389437;19;20153;-82
2023/08/16 05:51:03;;;;;;;6.68;3.17;;;22.80;99.90;;;;;;7389095;19;20142;-85
2023/08/16 05:53:28;;;;;;;4.47;3.10;;;22.90;99.90;;;;;;7388864;19;20153;-82
2023/08/16 05:55:54;;;;;;;5.93;3.28;;;23.00;99.90;;;;;;7389055;19;20140;-82
2023/08/16 05:58:20;;;;;;;7.05;3.63;;;23.00;99.90;;;;;;7386237;19;20230;-80
2023/08/16 06:00:47;;;;;;;4.90;3.10;;;23.10;99.90;;;;;;7385247;19;20237;-81
2023/08/16 06:03:14;;;;;;;4.00;2.75;;;23.10;99.90;;;;;;7392360;19;20591;-83
2023/08/16 06:05:40;;;;;;;7.47;3.38;;;23.10;99.90;;;;;;7385206;19;20134;-82
2023/08/16 06:08:08;;;;;;;7.63;3.25;;;23.20;99.90;;;;;;7390902;19;20142;-83
2023/08/16 06:10:34;;;;;;;4.93;3.67;;;23.30;99.90;;;;;;7390612;19;20165;-80
2023/08/16 06:12:59;;;;;;;4.38;3.45;;;23.40;99.90;;;;;;7391768;19;20135;-82
2023/08/16 06:15:26;;;;;;;5.93;3.05;;;23.50;99.90;;;;;;7389046;19;20142;-80
2023/08/16 06:17:51;;;;;;;5.18;3.58;;;23.50;99.90;;;;;;7390751;19;20139;-80
2023/08/16 06:20:17;;;;;;;6.47;3.70;;;23.60;99.90;;;;;;7390891;19;20134;-76
2023/08/16 06:22:43;;;;;;;5.93;3.53;;;23.60;99.90;;;;;;7391680;19;20955;-79
2023/08/16 06:25:09;;;;;;;8.80;4.43;;;23.70;99.90;;;;;;7388539;19;20214;-80
2023/08/16 06:27:35;;;;;;;7.78;3.72;;;23.90;99.90;;;;;;7386407;19;20130;-79
2023/08/16 06:30:01;;;;;;;9.50;3.95;;;24.00;99.90;;;;;;7393054;19;20126;-82
2023/08/16 06:32:27;;;;;;;7.50;3.35;;;24.00;99.90;;;;;;7391079;19;20401;-83
2023/08/16 06:34:52;;;;;;;4.80;2.50;;;24.10;99.90;;;;;;7386726;19;20161;-84
2023/08/16 06:37:18;;;;;;;4.50;2.63;;;23.90;99.90;;;;;;7389002;19;20159;-86
2023/08/16 06:39:44;;;;;;;5.50;2.75;;;23.90;99.90;;;;;;7390838;19;20226;-83
2023/08/16 06:42:10;;;;;;;2.58;2.30;;;24.00;99.90;;;;;;7390780;19;20465;-83
2023/08/16 06:44:36;;;;;;;4.32;3.03;;;24.00;99.90;;;;;;7390834;19;20135;-80
2023/08/16 06:47:02;;;;;;;4.20;2.50;;;24.10;99.90;;;;;;7388399;19;20160;-80
2023/08/16 06:49:28;;;;;;;2.95;2.58;;;24.10;99.90;;;;;;7387746;19;20563;-80
2023/08/16 06:51:53;;;;;;;2.95;2.40;;;24.10;99.90;;;;;;7387193;19;20147;-80
2023/08/16 06:54:19;;;;;;;4.43;2.72;;;24.10;99.90;;;;;;7387310;19;20210;-79
2023/08/16 06:56:45;;;;;;;3.78;3.08;;;24.20;99.90;;;;;;7386700;19;20227;-81
2023/08/16 06:59:11;;;;;;;5.80;3.15;;;24.30;99.90;;;;;;7387112;19;20469;-82
2023/08/16 07:01:36;;;;;;;3.95;2.88;;;24.30;99.90;;;;;;7390844;19;20134;-81
2023/08/16 07:04:03;;;;;;;3.13;2.60;;;24.70;99.90;;;;;;7388296;19;20901;-81
2023/08/16 07:06:31;;;;;;;5.43;2.65;;;25.60;99.90;;;;;;7390241;19;20138;-86
2023/08/16 07:08:59;;;;;;;4.53;3.00;;;26.40;99.90;;;;;;7389979;19;20130;-80
2023/08/16 07:11:25;;;;;;;4.28;3.35;;;27.00;99.90;;;;;;7385727;19;20146;-81
2023/08/16 07:13:53;;;;;;;3.63;3.05;;;27.70;99.90;;;;;;7388459;19;20135;-81
2023/08/16 07:16:22;;;;;;;4.90;3.53;;;28.30;99.90;;;;;;7388460;19;20481;-80
2023/08/16 07:18:48;;;;;;;4.95;2.88;;;28.40;99.90;;;;;;7388269;19;20173;-80
2023/08/16 07:21:13;;;;;;;5.07;2.70;;;28.60;99.90;;;;;;7386976;19;20190;-85
2023/08/16 07:23:39;;;;;;;7.78;5.65;;;28.40;99.90;;;;;;7386073;19;20543;-81
2023/08/16 07:26:05;;;;;;;5.05;3.75;;;28.50;99.90;;;;;;7388259;19;20153;-82
2023/08/16 07:28:34;;;;;;;8.05;3.70;;;28.90;99.90;;;;;;7395264;19;20138;-85
2023/08/16 07:30:59;;;;;;;3.85;3.20;;;29.40;99.90;;;;;;7392894;19;20158;-83
2023/08/16 07:33:25;;;;;;;3.85;3.40;;;29.00;99.90;;;;;;7395667;19;20135;-82
2023/08/16 07:35:51;;;;;;;5.32;3.53;;;28.70;99.90;;;;;;7392206;19;20143;-86
2023/08/16 07:38:17;;;;;;;5.43;3.58;;;28.80;99.90;;;;;;7394829;19;20142;-84
2023/08/16 07:40:47;;;;;;;3.20;2.90;;;29.00;99.90;;;;;;7392167;19;20145;-87
2023/08/16 07:43:13;;;;;;;5.13;3.47;;;29.20;99.90;;;;;;7393511;19;20886;-83
2023/08/16 07:45:39;;;;;;;3.78;3.40;;;29.00;99.90;;;;;;7394345;19;20154;-83
2023/08/16 07:48:05;;;;;;;5.10;3.00;;;28.90;99.90;;;;;;7393055;19;20142;-85
2023/08/16 07:50:31;;;;;;;6.63;4.78;;;29.00;99.90;;;;;;7391978;19;20138;-81
2023/08/16 07:52:57;;;;;;;4.95;4.28;;;29.00;99.90;;;;;;7394142;19;20135;-81
2023/08/16 07:55:29;;;;;;;5.53;3.85;;;29.10;99.90;;;;;;7395146;19;20427;-81
2023/08/16 07:57:57;;;;;;;6.70;4.53;;;29.20;99.90;;;;;;7393015;19;20130;-82
2023/08/16 08:00:24;;;;;;;5.53;3.63;;;29.10;99.90;;;;;;7393878;19;20134;-81
2023/08/16 08:02:50;;;;;;;4.65;3.50;;;29.10;99.90;;;;;;7395873;19;20216;-81
2023/08/16 08:05:16;;;;;;;3.80;2.92;;;29.40;99.90;;;;;;7389331;19;20235;-79
2023/08/16 08:07:42;;;;;;;5.00;3.58;;;29.20;99.90;;;;;;7390450;19;20507;-79
2023/08/16 08:10:08;;;;;;;4.50;3.25;;;29.50;99.90;;;;;;7394038;19;20192;-78
2023/08/16 08:12:34;;;;;;;3.50;3.10;;;29.80;99.90;;;;;;7392449;19;20925;-81
2023/08/16 08:14:59;;;;;;;4.32;3.67;;;30.00;99.90;;;;;;7392734;19;20167;-75
2023/08/16 08:17:25;;;;;;;7.95;3.92;;;30.10;99.90;;;;;;7391053;19;20138;-79
2023/08/16 08:19:52;;;;;;;3.92;3.45;;;29.80;99.90;;;;;;7390786;19;20147;-80
2023/08/16 08:22:17;;;;;;;5.60;3.00;;;29.40;99.90;;;;;;7392259;19;20154;-80
2023/08/16 08:24:43;;;;;;;6.30;3.95;;;29.40;99.90;;;;;;7391706;19;20134;-82
2023/08/16 08:27:09;;;;;;;5.93;4.13;;;29.40;99.90;;;;;;7390062;19;20476;-80
2023/08/16 08:29:35;;;;;;;8.13;5.95;;;29.40;99.90;;;;;;7392014;19;20154;-80
2023/08/16 08:32:02;;;;;;;5.93;4.88;;;29.20;99.90;;;;;;7391764;19;20142;-80
2023/08/16 08:34:28;;;;;;;7.43;4.43;;;28.90;99.90;;;;;;7389728;19;20190;-80
2023/08/16 08:36:54;;;;;;;4.15;3.63;;;29.10;99.90;;;;;;7389633;19;20566;-82
2023/08/16 08:39:21;;;;;;;7.07;3.72;;;28.80;99.90;;;;;;7392387;19;20504;-84
2023/08/16 08:41:48;;;;;;;6.10;3.72;;;28.30;99.90;;;;;;7392497;19;20490;-82
2023/08/16 08:44:17;;;;;;;4.30;3.70;;;28.00;99.90;;;;;;7394387;19;20153;-84
2023/08/16 08:46:47;;;;;;;5.30;3.72;;;28.00;99.90;;;;;;7390900;19;20190;-83
2023/08/16 08:49:15;;;;;;;4.57;3.60;;;27.90;99.90;;;;;;7390353;19;20520;-81
2023/08/16 08:51:41;;;;;;;5.93;3.78;;;27.80;99.90;;;;;;7392100;19;20135;-81
2023/08/16 08:54:08;;;;;;;4.57;3.80;;;28.10;99.90;;;;;;7391246;19;20150;-82
2023/08/16 08:56:34;;;;;;;5.82;3.70;;;28.40;99.90;;;;;;7393775;19;20142;-85
2023/08/16 08:59:01;;;;;;;5.35;3.78;;;28.10;99.90;;;;;;7392984;19;20149;-81
2023/08/16 09:01:29;;;;;;;5.35;3.90;;;27.80;99.90;;;;;;7392887;19;20131;-80
2023/08/16 09:03:59;;;;;;;5.07;3.53;;;27.60;99.90;;;;;;7389690;19;20685;-80
2023/08/16 09:06:25;;;;;;;5.47;3.47;;;27.70;99.90;;;;;;7390849;19;20465;-80
2023/08/16 09:08:52;;;;;;;7.00;3.53;;;27.80;99.90;;;;;;7391317;19;20839;-80
2023/08/16 09:11:20;;;;;;;10.52;6.80;;;28.10;99.90;;;;;;7390155;19;20202;-81
2023/08/16 09:13:47;;;;;;;6.90;6.00;;;28.30;99.90;;;;;;7392137;19;20154;-80
2023/08/16 09:16:13;;;;;;;11.02;6.13;;;28.30;99.90;;;;;;7391348;19;20485;-81
2023/08/16 09:18:47;;;;;;;6.72;5.78;;;28.30;99.90;;;;;;7388994;19;20149;-81
2023/08/16 09:21:16;;;;;;;4.95;4.20;;;28.20;99.90;;;;;;7392026;19;20478;-81
2023/08/16 09:23:42;;;;;;;7.13;4.72;;;28.20;99.90;;;;;;7389092;19;20139;-85
2023/08/16 09:26:15;;;;;;;5.88;3.75;;;28.10;99.90;;;;;;7389129;19;20189;-81
2023/08/16 09:28:41;;;;;;;11.32;8.50;;;28.10;99.90;;;;;;7391187;19;20139;-83
2023/08/16 09:31:07;;;;;;;4.82;3.85;;;28.30;99.90;;;;;;7390702;19;20209;-81
2023/08/16 09:33:38;;;;;;;6.43;3.97;;;28.70;99.90;;;;;;7393065;19;20143;-82
2023/08/16 09:36:04;;;;;;;5.70;3.90;;;28.80;99.90;;;;;;7394238;19;20618;-82
2023/08/16 09:38:32;;;;;;;4.30;3.90;;;28.60;99.90;;;;;;7393673;19;20137;-84
2023/08/16 09:40:58;;;;;;;4.70;3.65;;;28.30;99.90;;;;;;7389340;19;20157;-81
2023/08/16 09:43:24;;;;;;;4.32;3.80;;;28.10;99.90;;;;;;7391089;19;20135;-79
2023/08/16 09:45:54;;;;;;;5.43;3.70;;;28.10;99.90;;;;;;7389398;19;20130;-80
2023/08/16 09:48:21;;;;;;;4.18;3.63;;;28.00;99.90;;;;;;7389669;19;20130;-81
2023/08/16 09:50:47;;;;;;;5.38;4.10;;;27.90;99.90;;;;;;7389511;19;20153;-83
2023/08/16 09:53:13;;;;;;;4.20;3.35;;;27.90;99.90;;;;;;7391217;19;20139;-81
2023/08/16 09:55:49;;;;;;;11.80;10.40;;;27.70;99.90;;;;;;7388523;19;20139;-79
2023/08/16 09:58:16;;;;;;;8.85;5.28;;;27.90;99.90;;;;;;7389875;19;20210;-81
2023/08/16 10:00:43;;;;;;;10.25;8.23;;;27.80;99.90;;;;;;7390524;19;20202;-81
2023/08/16 10:03:10;;;;;;;5.07;4.13;;;27.80;99.90;;;;;;7389786;19;20134;-79
2023/08/16 10:05:36;;;;;;;6.00;5.40;;;27.90;99.90;;;;;;7393707;19;20131;-83
2023/08/16 10:08:04;;;;;;;7.03;5.13;;;28.10;99.90;;;;;;7393604;19;20135;-83
2023/08/16 10:10:34;;;;;;;6.63;4.60;;;28.20;99.90;;;;;;7396368;19;20552;-84
2023/08/16 10:13:03;;;;;;;5.68;4.60;;;28.30;99.90;;;;;;7399231;19;20142;-83
2023/08/16 10:15:32;;;;;;;7.97;3.85;;;28.20;99.90;;;;;;7390827;19;20130;-82
2023/08/16 10:18:00;;;;;;;7.18;4.53;;;28.20;99.90;;;;;;7387002;19;20310;-78
2023/08/16 10:20:29;;;;;;;4.55;3.95;;;28.30;99.90;;;;;;7385650;19;20135;-77
2023/08/16 10:23:02;;;;;;;5.90;4.63;;;28.10;99.90;;;;;;7389513;19;20482;-81
2023/08/16 10:25:36;;;;;;;6.47;4.22;;;28.00;99.90;;;;;;7390422;19;20179;-83
2023/08/16 10:28:03;;;;;;;5.13;4.32;;;27.90;99.90;;;;;;7390573;19;20149;-80
2023/08/16 10:30:31;;;;;;;6.03;3.63;;;27.70;99.90;;;;;;7392631;19;20543;-83
2023/08/16 10:33:16;;;;;;;4.80;3.60;;;27.70;99.90;;;;;;7390980;19;21230;-82
2023/08/16 10:35:44;;;;;;;4.78;4.22;;;27.80;99.90;;;;;;7391733;19;20131;-85
2023/08/16 10:38:10;;;;;;;4.05;3.65;;;28.10;99.90;;;;;;7392098;19;20138;-85
2023/08/16 10:40:36;;;;;;;5.00;4.32;;;28.30;99.90;;;;;;7393044;19;20157;-84
2023/08/16 10:43:06;;;;;;;6.40;4.75;;;28.50;99.90;;;;;;7399544;19;20130;-83
2023/08/16 10:45:34;;;;;;;6.10;4.05;;;28.70;99.90;;;;;;7388416;19;20126;-86
2023/08/16 10:48:17;;;;;;;7.85;4.15;;;28.90;99.90;;;;;;7389130;19;20209;-85
2023/08/16 10:50:44;;;;;;;4.88;3.60;;;28.90;99.90;;;;;;7386347;19;20134;-84
2023/08/16 10:53:12;;;;;;;6.22;5.07;;;28.80;99.90;;;;;;7384016;19;20614;-85
2023/08/16 10:55:40;;;;;;;7.22;4.95;;;28.70;99.90;;;;;;7383427;19;20711;-78
2023/08/16 10:58:06;;;;;;;8.25;4.97;;;28.80;99.90;;;;;;7388307;19;20525;-82
2023/08/16 11:00:36;;;;;;;6.22;4.45;;;28.80;99.90;;;;;;7386115;19;20242;-85
2023/08/16 11:03:04;;;;;;;6.18;4.20;;;28.80;99.90;;;;;;7392642;19;20138;-81
2023/08/16 11:05:34;;;;;;;4.97;4.43;;;28.80;99.90;;;;;;7395127;19;20619;-81
2023/08/16 11:08:01;;;;;;;5.63;4.63;;;28.80;99.90;;;;;;7394973;19;20161;-83
2023/08/16 11:10:37;;;;;;;6.35;4.78;;;28.90;99.90;;;;;;7394114;19;20135;-84
2023/08/16 11:13:12;;;;;;;6.68;4.90;;;29.00;99.90;;;;;;7395456;19;20625;-84
2023/08/16 11:15:40;;;;;;;5.57;4.45;;;29.20;99.90;;;;;;7396252;19;20149;-79
2023/08/16 11:18:06;;;;;;;4.32;3.63;;;29.30;99.90;;;;;;7392438;19;20809;-79
2023/08/16 11:20:32;;;;;;;5.22;4.45;;;29.30;99.90;;;;;;7392504;19;20461;-81
2023/08/16 11:22:58;;;;;;;6.68;4.03;;;29.20;99.90;;;;;;7395702;19;20207;-82
2023/08/16 11:25:35;;;;;;;5.85;4.10;;;29.20;99.90;;;;;;7395539;19;20141;-84
2023/08/16 11:28:05;;;;;;;9.40;6.53;;;29.20;99.90;;;;;;7395373;19;20130;-83
2023/08/16 11:30:32;;;;;;;5.15;3.75;;;29.20;99.90;;;;;;7393226;19;20499;-83
2023/08/16 11:33:00;;;;;;;7.03;5.50;;;29.20;99.90;;;;;;7395149;19;20143;-85
2023/08/16 11:35:26;;;;;;;6.15;3.50;;;29.30;99.90;;;;;;7395922;19;20135;-84
2023/08/16 11:37:52;;;;;;;4.22;3.53;;;29.40;99.90;;;;;;7393318;19;20165;-83
2023/08/16 11:40:25;;;;;;;5.22;4.22;;;29.50;99.90;;;;;;7394566;19;20317;-82
2023/08/16 11:42:51;;;;;;;4.95;3.55;;;29.60;99.90;;;;;;7397105;19;20194;-83
2023/08/16 11:45:23;;;;;;;5.65;3.92;;;29.70;99.90;;;;;;7397973;19;20139;-86
2023/08/16 11:47:53;;;;;;;4.70;3.58;;;29.70;99.90;;;;;;7396813;19;20142;-86
2023/08/16 11:50:19;;;;;;;6.40;4.07;;;29.70;99.90;;;;;;7394553;19;20147;-82
2023/08/16 11:52:56;;;;;;;5.47;4.60;;;29.90;99.90;;;;;;7392828;19;20130;-83
2023/08/16 11:55:22;;;;;;;5.50;4.65;;;29.90;99.90;;;;;;7393328;19;20138;-80
2023/08/16 11:57:48;;;;;;;21.38;14.98;;;29.90;99.90;;;;;;7395052;19;20127;-83
2023/08/16 12:00:26;;;;;;;5.90;4.35;;;30.00;99.90;;;;;;7391917;19;20151;-82
2023/08/16 12:02:51;;;;;;;5.13;3.78;;;30.00;99.90;;;;;;7394044;19;20131;-82
2023/08/16 12:05:17;;;;;;;7.45;3.78;;;30.00;99.90;;;;;;7390716;19;20233;-83
2023/08/16 12:07:53;;;;;;;4.82;3.45;;;30.00;99.90;;;;;;7390849;19;20160;-83
2023/08/16 12:10:29;;;;;;;5.13;4.00;;;30.00;99.90;;;;;;7392372;19;20134;-80
2023/08/16 12:12:55;;;;;;;6.05;3.53;;;30.00;99.90;;;;;;7388890;19;20146;-80
2023/08/16 12:15:23;;;;;;;4.68;3.42;;;29.90;99.90;;;;;;7394313;19;20135;-81
2023/08/16 12:17:52;;;;;;;4.30;3.72;;;29.90;99.90;;;;;;7394324;19;20607;-82
2023/08/16 12:20:18;;;;;;;5.15;3.25;;;30.00;99.90;;;;;;7391581;19;20135;-83
2023/08/16 12:22:45;;;;;;;6.07;3.92;;;30.20;99.90;;;;;;7393403;19;20945;-84
2023/08/16 12:25:11;;;;;;;3.45;3.10;;;30.30;99.90;;;;;;7395169;19;20217;-81
2023/08/16 12:27:37;;;;;;;6.88;4.00;;;30.30;99.90;;;;;;7390397;19;21708;-83
2023/08/16 12:30:05;;;;;;;4.30;3.40;;;30.40;99.90;;;;;;7393365;19;20134;-84
2023/08/16 12:32:31;;;;;;;4.78;3.67;;;30.50;99.90;;;;;;7391418;19;20135;-83
2023/08/16 12:34:57;;;;;;;4.63;3.83;;;30.60;99.90;;;;;;7393182;19;20616;-83
2023/08/16 12:37:23;;;;;;;6.55;3.88;;;30.60;99.90;;;;;;7392131;19;20131;-82
2023/08/16 12:39:49;;;;;;;6.93;3.75;;;30.70;99.90;;;;;;7393987;19;20138;-81
2023/08/16 12:42:15;;;;;;;3.17;2.78;;;30.60;99.90;;;;;;7394884;19;20130;-83
2023/08/16 12:44:41;;;;;;;3.90;3.50;;;30.40;99.90;;;;;;7391680;19;20134;-82